Time;durP1;ratioP1;P1;durP2;ratioP2;P2;SDS_P1;SDS_P2;PMS_P1;PMS_P2;Temp;Humidity;BMP_temperature;BMP_pressure;BME280_temperature;BME280_humidity;BME280_pressure;Samples;Min_cycle;Max_cycle;Signal;HPM_P1;HPM_P2
2022/08/07 00:00:25;;;;;;;4.72;2.92;;;;;;;-148.14;100.00;65945.72;5042477;28;20029;-89
2022/08/07 00:02:51;;;;;;;44.78;30.05;;;;;;;-148.14;100.00;65945.72;5041260;28;20029;-89
2022/08/07 00:05:16;;;;;;;45.40;31.95;;;;;;;-148.14;100.00;65945.72;5024071;28;20105;-90
2022/08/07 00:07:42;;;;;;;14.65;12.23;;;;;;;-148.14;100.00;65945.72;5030179;28;20061;-90
2022/08/07 00:10:09;;;;;;;6.90;5.28;;;;;;;-148.14;100.00;65945.72;5048059;28;20036;-89
2022/08/07 00:12:34;;;;;;;4.70;3.08;;;;;;;-148.14;100.00;65945.72;5047848;28;20479;-89
2022/08/07 00:15:00;;;;;;;5.95;3.00;;;;;;;-148.14;100.00;65945.72;5043272;28;20036;-90
2022/08/07 00:17:25;;;;;;;4.15;3.05;;;;;;;-148.14;100.00;65945.72;5037496;28;20045;-90
2022/08/07 00:19:51;;;;;;;4.40;2.83;;;;;;;-148.14;100.00;65945.72;5066262;28;20071;-88
2022/08/07 00:22:17;;;;;;;6.93;2.85;;;;;;;-148.14;100.00;65945.72;5032023;28;20060;-90
2022/08/07 00:24:43;;;;;;;5.88;3.40;;;;;;;-148.14;100.00;65945.72;5063975;28;20048;-90
2022/08/07 00:27:08;;;;;;;4.88;2.55;;;;;;;-148.14;100.00;65945.72;5042451;28;20029;-90
2022/08/07 00:29:34;;;;;;;4.53;2.75;;;;;;;-148.14;100.00;65945.72;5039521;28;20449;-89
2022/08/07 00:32:02;;;;;;;5.85;2.80;;;;;;;-148.14;100.00;65945.72;5065287;28;20032;-88
2022/08/07 00:34:29;;;;;;;6.40;3.30;;;;;;;-148.14;100.00;65945.72;5059881;28;20036;-89
2022/08/07 00:36:55;;;;;;;4.35;2.70;;;;;;;-148.14;100.00;65945.72;5016108;28;20025;-89
2022/08/07 00:39:20;;;;;;;3.50;2.95;;;;;;;-148.14;100.00;65945.72;5065484;28;20036;-90
2022/08/07 00:41:57;;;;;;;5.95;3.08;;;;;;;-148.14;100.00;65945.72;5031323;28;20045;-89
2022/08/07 00:44:23;;;;;;;5.35;2.50;;;;;;;-148.14;100.00;65945.72;5029840;28;20025;-91
2022/08/07 00:46:50;;;;;;;5.07;2.78;;;;;;;-148.14;100.00;65945.72;5064977;28;20032;-89
2022/08/07 00:49:16;;;;;;;6.13;3.30;;;;;;;-148.14;100.00;65945.72;5024309;28;20029;-88
2022/08/07 00:51:42;;;;;;;3.45;2.38;;;;;;;-148.14;100.00;65945.72;5065259;28;20032;-90
2022/08/07 00:54:08;;;;;;;3.33;2.33;;;;;;;-148.14;100.00;65945.72;5019693;28;20033;-91
2022/08/07 00:56:35;;;;;;;5.85;2.58;;;;;;;-148.14;100.00;65945.72;5045775;28;20024;-89
2022/08/07 00:59:01;;;;;;;6.15;2.67;;;;;;;-148.14;100.00;65945.72;5060522;28;20029;-89
2022/08/07 01:01:27;;;;;;;4.95;2.92;;;;;;;-148.14;100.00;65945.72;5063160;28;20031;-89
2022/08/07 01:03:56;;;;;;;5.97;3.25;;;;;;;-148.14;100.00;65945.72;5031689;28;20046;-92
2022/08/07 01:06:21;;;;;;;7.75;3.00;;;;;;;-148.14;100.00;65945.72;5064756;28;20566;-90
2022/08/07 01:08:47;;;;;;;6.68;3.00;;;;;;;-148.14;100.00;65945.72;5047428;28;20029;-90
2022/08/07 01:11:15;;;;;;;6.93;3.47;;;;;;;-148.14;100.00;65945.72;5064697;28;20029;-89
2022/08/07 01:13:41;;;;;;;5.65;3.67;;;;;;;-148.14;100.00;65945.72;5060909;28;20034;-89
2022/08/07 01:16:07;;;;;;;5.20;3.20;;;;;;;-148.14;100.00;65945.72;5060872;28;20036;-89
2022/08/07 01:18:34;;;;;;;5.43;3.20;;;;;;;-148.14;100.00;65945.72;5031306;28;20064;-89
2022/08/07 01:21:11;;;;;;;6.55;3.47;;;;;;;-148.14;100.00;65945.72;5030128;28;20037;-89
2022/08/07 01:23:39;;;;;;;6.10;3.97;;;;;;;-148.14;100.00;65945.72;5063744;28;20082;-90
2022/08/07 01:26:07;;;;;;;6.15;3.88;;;;;;;-148.14;100.00;65945.72;5030545;28;20033;-89
2022/08/07 01:28:33;;;;;;;7.05;4.10;;;;;;;-148.14;100.00;65945.72;5047019;28;20033;-90
2022/08/07 01:31:00;;;;;;;6.65;4.07;;;;;;;-148.14;100.00;65945.72;5064347;28;20114;-89
2022/08/07 01:33:26;;;;;;;5.57;3.90;;;;;;;-148.14;100.00;65945.72;5040882;28;20609;-89
2022/08/07 01:35:52;;;;;;;6.63;4.32;;;;;;;-148.14;100.00;65945.72;5035546;28;20033;-91
2022/08/07 01:38:18;;;;;;;8.55;4.53;;;;;;;-148.14;100.00;65945.72;5038227;28;20040;-88
2022/08/07 01:40:46;;;;;;;5.63;3.85;;;;;;;-148.14;100.00;65945.72;5038770;28;20073;-91
2022/08/07 01:43:12;;;;;;;9.98;5.03;;;;;;;-148.14;100.00;65945.72;5065203;28;20135;-89
2022/08/07 01:45:38;;;;;;;5.88;4.35;;;;;;;-148.14;100.00;65945.72;5058271;28;20490;-90
2022/08/07 01:48:03;;;;;;;6.97;3.85;;;;;;;-148.14;100.00;65945.72;5036863;28;20029;-90
2022/08/07 01:50:31;;;;;;;4.30;3.60;;;;;;;-148.14;100.00;65945.72;5025666;28;20115;-90
2022/08/07 01:53:00;;;;;;;5.78;3.90;;;;;;;-148.14;100.00;65945.72;5045135;28;20537;-90
2022/08/07 01:55:35;;;;;;;5.85;3.80;;;;;;;-148.14;100.00;65945.72;5042663;28;20029;-90
2022/08/07 01:58:05;;;;;;;6.88;4.40;;;;;;;-148.14;100.00;65945.72;5038803;28;20056;-91
2022/08/07 02:00:38;;;;;;;7.32;3.78;;;;;;;-148.14;100.00;65945.72;5029915;28;20172;-89
2022/08/07 02:03:13;;;;;;;6.28;3.78;;;;;;;-148.14;100.00;65945.72;5063984;28;20025;-89
2022/08/07 02:05:49;;;;;;;4.43;3.75;;;;;;;-148.14;100.00;65945.72;5027015;28;20030;-90
2022/08/07 02:08:20;;;;;;;5.35;3.70;;;;;;;-148.14;100.00;65945.72;5016238;28;20094;-90
2022/08/07 02:10:51;;;;;;;7.07;4.20;;;;;;;-148.14;100.00;65945.72;5016602;28;20116;-90
2022/08/07 02:13:20;;;;;;;6.47;4.57;;;;;;;-148.14;100.00;65945.72;5014350;28;20488;-89
2022/08/07 02:15:47;;;;;;;6.30;4.05;;;;;;;-148.14;100.00;65945.72;5033178;28;20037;-90
2022/08/07 02:18:15;;;;;;;5.85;4.00;;;;;;;-148.14;100.00;65945.72;5022276;28;20089;-89
2022/08/07 02:20:43;;;;;;;6.38;3.72;;;;;;;-148.14;100.00;65945.72;5012222;28;20041;-89
2022/08/07 02:23:10;;;;;;;4.63;3.38;;;;;;;-148.14;100.00;65945.72;5020028;28;20093;-88
2022/08/07 02:25:39;;;;;;;4.88;3.28;;;;;;;-148.14;100.00;65945.72;5018404;28;20108;-88
2022/08/07 02:28:06;;;;;;;6.32;4.00;;;;;;;-148.14;100.00;65945.72;5019829;28;20030;-89
2022/08/07 02:30:35;;;;;;;7.13;3.88;;;;;;;-148.14;100.00;65945.72;5014315;28;20029;-89
2022/08/07 02:33:03;;;;;;;6.30;3.67;;;;;;;-148.14;100.00;65945.72;5017003;28;20056;-89
2022/08/07 02:35:33;;;;;;;6.90;3.50;;;;;;;-148.14;100.00;65945.72;5003524;28;20553;-92
2022/08/07 02:38:02;;;;;;;7.18;4.13;;;;;;;-148.14;100.00;65945.72;4998354;28;20033;-88
2022/08/07 02:40:29;;;;;;;5.13;3.90;;;;;;;-148.14;100.00;65945.72;5019515;28;20049;-90
2022/08/07 02:42:56;;;;;;;9.43;4.03;;;;;;;-148.14;100.00;65945.72;5037216;28;20060;-88
2022/08/07 02:45:25;;;;;;;9.02;3.83;;;;;;;-148.14;100.00;65945.72;5017996;28;20061;-88
2022/08/07 02:47:51;;;;;;;6.45;3.55;;;;;;;-148.14;100.00;65945.72;5003493;28;20053;-89
2022/08/07 02:50:18;;;;;;;3.83;3.30;;;;;;;-148.14;100.00;65945.72;5036160;28;20031;-91
2022/08/07 02:52:58;;;;;;;8.85;4.10;;;;;;;-148.14;100.00;65945.72;5040601;28;20108;-90
2022/08/07 02:55:29;;;;;;;4.63;3.70;;;;;;;-148.14;100.00;65945.72;5012577;28;20038;-89
2022/08/07 02:58:01;;;;;;;5.50;3.30;;;;;;;-148.14;100.00;65945.72;5036470;28;20072;-89
2022/08/07 03:00:31;;;;;;;8.13;3.55;;;;;;;-148.14;100.00;65945.72;5021123;28;20164;-90
2022/08/07 03:02:59;;;;;;;8.38;3.90;;;;;;;-148.14;100.00;65945.72;5021712;28;20032;-89
2022/08/07 03:05:26;;;;;;;7.85;4.00;;;;;;;-148.14;100.00;65945.72;5040243;28;20093;-88
2022/08/07 03:07:54;;;;;;;7.82;4.25;;;;;;;-148.14;100.00;65945.72;5026092;28;20036;-88
2022/08/07 03:10:21;;;;;;;7.22;4.07;;;;;;;-148.14;100.00;65945.72;5028351;28;20124;-90
2022/08/07 03:12:48;;;;;;;9.40;4.18;;;;;;;-148.14;100.00;65945.72;5053609;28;20067;-90
2022/08/07 03:15:16;;;;;;;4.43;3.65;;;;;;;-148.14;100.00;65945.72;5042134;28;20475;-88
2022/08/07 03:17:42;;;;;;;6.00;3.70;;;;;;;-148.14;100.00;65945.72;5073890;28;20097;-88
2022/08/07 03:20:10;;;;;;;5.30;3.45;;;;;;;-148.14;100.00;65945.72;5054331;28;20043;-90
2022/08/07 03:22:37;;;;;;;6.75;3.65;;;;;;;-148.14;100.00;65945.72;5041879;28;20064;-90
2022/08/07 03:25:04;;;;;;;6.55;3.92;;;;;;;-148.14;100.00;65945.72;5052847;28;20029;-88
2022/08/07 03:27:30;;;;;;;6.80;3.88;;;;;;;-148.14;100.00;65945.72;5040634;28;20033;-90
2022/08/07 03:29:57;;;;;;;5.55;3.33;;;;;;;-148.14;100.00;65945.72;5052145;28;20044;-89
2022/08/07 03:32:25;;;;;;;4.72;3.75;;;;;;;-148.14;100.00;65945.72;5051720;28;20036;-90
2022/08/07 03:34:56;;;;;;;8.90;4.07;;;;;;;-148.14;100.00;65945.72;5051541;28;20036;-88
2022/08/07 03:37:24;;;;;;;4.45;3.75;;;;;;;-148.14;100.00;65945.72;5049083;28;20063;-89
2022/08/07 03:39:51;;;;;;;6.22;3.95;;;;;;;-148.14;100.00;65945.72;5049188;28;20033;-90
2022/08/07 03:42:18;;;;;;;10.20;4.43;;;;;;;-148.14;100.00;65945.72;5041504;28;20399;-91
2022/08/07 03:44:45;;;;;;;5.93;3.67;;;;;;;-148.14;100.00;65945.72;5039155;28;20067;-89
2022/08/07 03:47:11;;;;;;;5.88;3.58;;;;;;;-148.14;100.00;65945.72;5040391;28;20033;-91
2022/08/07 03:49:38;;;;;;;5.90;3.90;;;;;;;-148.14;100.00;65945.72;5026017;28;20033;-91
2022/08/07 03:52:06;;;;;;;7.10;4.43;;;;;;;-148.14;100.00;65945.72;5039100;28;20854;-89
2022/08/07 03:54:34;;;;;;;5.80;4.38;;;;;;;-148.14;100.00;65945.72;5029502;28;20029;-91
2022/08/07 03:57:01;;;;;;;11.27;4.82;;;;;;;-148.14;100.00;65945.72;5032295;28;20028;-90
2022/08/07 03:59:31;;;;;;;7.28;4.13;;;;;;;-148.14;100.00;65945.72;5042699;28;20107;-89
2022/08/07 04:01:57;;;;;;;7.30;4.10;;;;;;;-148.14;100.00;65945.72;5058309;28;20033;-90
2022/08/07 04:04:23;;;;;;;7.78;4.63;;;;;;;-148.14;100.00;65945.72;5065725;28;20407;-91
2022/08/07 04:06:49;;;;;;;5.93;3.85;;;;;;;-148.14;100.00;65945.72;5039718;28;20030;-89
2022/08/07 04:09:15;;;;;;;8.80;4.80;;;;;;;-148.14;100.00;65945.72;5064521;28;20671;-89
2022/08/07 04:11:43;;;;;;;4.43;3.67;;;;;;;-148.14;100.00;65945.72;5031612;28;20084;-89
2022/08/07 04:14:09;;;;;;;6.82;4.38;;;;;;;-148.14;100.00;65945.72;5031776;28;20756;-90
2022/08/07 04:16:36;;;;;;;6.10;3.88;;;;;;;-148.14;100.00;65945.72;5048430;28;20028;-89
2022/08/07 04:19:03;;;;;;;5.63;3.80;;;;;;;-148.14;100.00;65945.72;5022055;28;20025;-90
2022/08/07 04:21:30;;;;;;;5.82;3.67;;;;;;;-148.14;100.00;65945.72;5032025;28;20025;-89
2022/08/07 04:23:56;;;;;;;6.10;3.70;;;;;;;-148.14;100.00;65945.72;5031291;28;20067;-90
2022/08/07 04:26:22;;;;;;;6.20;4.40;;;;;;;-148.14;100.00;65945.72;5066261;28;20108;-90
2022/08/07 04:28:48;;;;;;;7.55;5.07;;;;;;;-148.14;100.00;65945.72;5031267;28;20024;-89
2022/08/07 04:31:14;;;;;;;8.93;4.43;;;;;;;-148.14;100.00;65945.72;5038972;28;20029;-89
2022/08/07 04:33:41;;;;;;;7.45;4.25;;;;;;;-148.14;100.00;65945.72;5038421;28;20403;-91
2022/08/07 04:36:10;;;;;;;7.82;4.07;;;;;;;-148.14;100.00;65945.72;5023838;28;20123;-88
2022/08/07 04:38:37;;;;;;;5.05;3.95;;;;;;;-148.14;100.00;65945.72;5064079;28;20032;-90
2022/08/07 04:41:03;;;;;;;8.30;4.57;;;;;;;-148.14;100.00;65945.72;5049497;28;20062;-90
2022/08/07 04:43:37;;;;;;;4.45;3.45;;;;;;;-148.14;100.00;65945.72;5030146;28;20036;-90
2022/08/07 04:46:13;;;;;;;6.50;3.88;;;;;;;-148.14;100.00;65945.72;5039451;28;20021;-88
2022/08/07 04:48:44;;;;;;;6.45;3.38;;;;;;;-148.14;100.00;65945.72;5046071;28;20067;-91
2022/08/07 04:51:42;;;;;;;6.10;3.42;;;;;;;-148.14;100.00;65945.72;5042471;28;20493;-90
2022/08/07 04:54:32;;;;;;;5.95;3.60;;;;;;;-148.14;100.00;65945.72;5045263;28;20057;-88
2022/08/07 04:57:12;;;;;;;6.97;3.95;;;;;;;-148.14;100.00;65945.72;5037966;28;20059;-88
2022/08/07 04:59:56;;;;;;;8.13;3.58;;;;;;;-148.14;100.00;65945.72;5038692;28;20497;-89
2022/08/07 05:02:34;;;;;;;7.47;4.43;;;;;;;-148.14;100.00;65945.72;5048978;28;20107;-89
2022/08/07 05:05:05;;;;;;;6.90;4.20;;;;;;;-148.14;100.00;65945.72;5065519;28;20040;-90
2022/08/07 05:07:54;;;;;;;7.53;4.82;;;;;;;-148.14;100.00;65945.72;5056002;28;20032;-90
2022/08/07 05:10:27;;;;;;;7.22;4.07;;;;;;;-148.14;100.00;65945.72;5037117;28;20063;-88
2022/08/07 05:13:11;;;;;;;7.97;4.65;;;;;;;-148.14;100.00;65945.72;5022269;28;20033;-90
2022/08/07 05:15:39;;;;;;;;;;;;;;;-148.14;100.00;65945.72;5042530;28;20105;-90
2022/08/07 05:18:15;;;;;;;8.25;4.70;;;;;;;-148.14;100.00;65945.72;5061912;28;19913;-89
2022/08/07 05:20:45;;;;;;;7.35;4.28;;;;;;;-148.14;100.00;65945.72;5031078;28;20096;-89
2022/08/07 05:23:26;;;;;;;7.10;4.72;;;;;;;-148.14;100.00;65945.72;5030782;28;20059;-89
2022/08/07 05:25:52;;;;;;;8.02;4.97;;;;;;;-148.14;100.00;65945.72;5015890;28;20033;-91
2022/08/07 05:28:19;;;;;;;8.10;4.88;;;;;;;-148.14;100.00;65945.72;5031434;28;20055;-91
2022/08/07 05:30:45;;;;;;;7.50;4.70;;;;;;;-148.14;100.00;65945.72;5064845;28;20041;-88
2022/08/07 05:33:13;;;;;;;8.00;4.10;;;;;;;-148.14;100.00;65945.72;5030865;28;20040;-89
2022/08/07 05:35:41;;;;;;;5.22;3.92;;;;;;;-148.14;100.00;65945.72;5060071;28;20398;-92
2022/08/07 05:38:08;;;;;;;7.13;4.30;;;;;;;-148.14;100.00;65945.72;5030660;28;20037;-88
2022/08/07 05:40:36;;;;;;;6.00;4.45;;;;;;;-148.14;100.00;65945.72;5065886;28;20036;-89
2022/08/07 05:43:02;;;;;;;5.72;4.03;;;;;;;-148.14;100.00;65945.72;5045179;28;20029;-88
2022/08/07 05:45:29;;;;;;;6.95;4.10;;;;;;;-148.14;100.00;65945.72;5031303;28;20044;-90
2022/08/07 05:47:54;;;;;;;6.30;4.18;;;;;;;-148.14;100.00;65945.72;5019117;28;20036;-89
2022/08/07 05:50:22;;;;;;;8.30;4.78;;;;;;;-148.14;100.00;65945.72;5061408;28;20036;-89
2022/08/07 05:52:47;;;;;;;5.25;4.30;;;;;;;-148.14;100.00;65945.72;5061303;28;20033;-89
2022/08/07 05:55:13;;;;;;;9.77;4.93;;;;;;;-148.14;100.00;65945.72;5042845;28;20035;-90
2022/08/07 05:57:40;;;;;;;9.27;4.35;;;;;;;-148.14;100.00;65945.72;5041268;28;20094;-90
2022/08/07 06:00:07;;;;;;;6.65;3.60;;;;;;;-148.14;100.00;65945.72;5038063;28;20036;-89
2022/08/07 06:02:35;;;;;;;8.48;3.85;;;;;;;-148.14;100.00;65945.72;5046371;28;20056;-90
2022/08/07 06:05:06;;;;;;;7.18;4.38;;;;;;;-148.14;100.00;65945.72;5046086;28;20402;-90
2022/08/07 06:07:33;;;;;;;6.88;4.07;;;;;;;-148.14;100.00;65945.72;5047405;28;20049;-90
2022/08/07 06:09:59;;;;;;;6.57;4.43;;;;;;;-148.14;100.00;65945.72;5044767;28;20045;-90
2022/08/07 06:12:26;;;;;;;7.15;4.28;;;;;;;-148.14;100.00;65945.72;5037616;28;20033;-89
2022/08/07 06:14:53;;;;;;;9.85;4.00;;;;;;;-148.14;100.00;65945.72;5014253;28;20052;-90
2022/08/07 06:17:19;;;;;;;5.88;3.70;;;;;;;-148.14;100.00;65945.72;5044533;28;20494;-90
2022/08/07 06:19:46;;;;;;;4.05;3.30;;;;;;;-148.14;100.00;65945.72;5063361;28;20021;-91
2022/08/07 06:22:13;;;;;;;5.32;3.90;;;;;;;-148.14;100.00;65945.72;5035969;28;20471;-91
2022/08/07 06:24:39;;;;;;;7.20;3.75;;;;;;;-148.14;100.00;65945.72;5041282;28;20025;-90
2022/08/07 06:27:05;;;;;;;6.93;3.50;;;;;;;-148.14;100.00;65945.72;5050424;28;20029;-89
2022/08/07 06:29:32;;;;;;;5.95;3.50;;;;;;;-148.14;100.00;65945.72;5030329;28;20029;-91
2022/08/07 06:31:58;;;;;;;3.55;3.25;;;;;;;-148.14;100.00;65945.72;5068159;28;20029;-88
2022/08/07 06:34:25;;;;;;;4.63;3.50;;;;;;;-148.14;100.00;65945.72;5036670;28;20097;-89
2022/08/07 06:36:51;;;;;;;6.55;3.75;;;;;;;-148.14;100.00;65945.72;5048746;28;20437;-90
2022/08/07 06:39:17;;;;;;;7.40;3.33;;;;;;;-148.14;100.00;65945.72;5037037;28;20064;-88
2022/08/07 06:41:48;;;;;;;6.45;3.50;;;;;;;-148.14;100.00;65945.72;5037446;28;20029;-89
2022/08/07 06:44:15;;;;;;;6.68;3.88;;;;;;;-148.14;100.00;65945.72;5037686;28;20048;-89
2022/08/07 06:46:41;;;;;;;8.57;4.28;;;;;;;-148.14;100.00;65945.72;5066762;28;20087;-90
2022/08/07 06:49:07;;;;;;;7.35;4.50;;;;;;;-148.14;100.00;65945.72;5065769;28;20029;-90
2022/08/07 06:51:34;;;;;;;5.30;3.50;;;;;;;-148.14;100.00;65945.72;5020710;28;20032;-90
2022/08/07 06:54:03;;;;;;;6.50;3.60;;;;;;;-148.14;100.00;65945.72;5048727;28;20034;-89
2022/08/07 06:56:45;;;;;;;8.50;4.22;;;;;;;-148.14;100.00;65945.72;5064392;28;20021;-90
2022/08/07 06:59:18;;;;;;;7.72;4.05;;;;;;;-148.14;100.00;65945.72;5042964;28;20179;-89
2022/08/07 07:01:46;;;;;;;7.63;4.80;;;;;;;-148.14;100.00;65945.72;5050313;28;20036;-91
2022/08/07 07:04:12;;;;;;;14.55;4.95;;;;;;;-148.14;100.00;65945.72;5065667;28;20045;-88
2022/08/07 07:06:39;;;;;;;7.53;4.68;;;;;;;-148.14;100.00;65945.72;5049373;28;20033;-90
2022/08/07 07:09:28;;;;;;;7.80;4.88;;;;;;;-148.14;100.00;65945.72;5048211;28;20028;-89
2022/08/07 07:12:02;;;;;;;8.27;4.32;;;;;;;-148.14;100.00;65945.72;5064107;28;20025;-89
2022/08/07 07:14:33;;;;;;;8.40;5.75;;;;;;;-148.14;100.00;65945.72;5064696;28;20035;-91
2022/08/07 07:17:03;;;;;;;9.18;5.25;;;;;;;-148.14;100.00;65945.72;5043582;28;20053;-91
2022/08/07 07:19:39;;;;;;;7.38;5.55;;;;;;;-148.14;100.00;65945.72;5044768;28;20033;-90
2022/08/07 07:22:07;;;;;;;12.00;6.05;;;;;;;-148.14;100.00;65945.72;5042362;28;20036;-90
2022/08/07 07:24:33;;;;;;;6.20;5.57;;;;;;;-148.14;100.00;65945.72;5018543;28;20033;-89
2022/08/07 07:27:03;;;;;;;11.48;5.75;;;;;;;-148.14;100.00;65945.72;5037076;28;20116;-89
2022/08/07 07:29:35;;;;;;;10.30;5.55;;;;;;;-148.14;100.00;65945.72;5069467;28;20060;-88
2022/08/07 07:32:04;;;;;;;12.70;6.07;;;;;;;-148.14;100.00;65945.72;5032771;28;20024;-90
2022/08/07 07:34:32;;;;;;;14.75;6.22;;;;;;;-148.14;100.00;65945.72;5040442;28;20064;-90
2022/08/07 07:37:00;;;;;;;8.93;5.78;;;;;;;-148.14;100.00;65945.72;5045790;28;20025;-90
2022/08/07 07:39:28;;;;;;;10.25;6.18;;;;;;;-148.14;100.00;65945.72;5048390;28;20025;-90
2022/08/07 07:41:55;;;;;;;12.27;6.18;;;;;;;-148.14;100.00;65945.72;5037863;28;20090;-90
2022/08/07 07:44:25;;;;;;;8.70;5.15;;;;;;;-148.14;100.00;65945.72;5032398;28;20040;-90
2022/08/07 07:46:53;;;;;;;7.90;5.47;;;;;;;-148.14;100.00;65945.72;5027862;28;20033;-89
2022/08/07 07:49:25;;;;;;;10.95;5.75;;;;;;;-148.14;100.00;65945.72;5041812;28;20123;-89
2022/08/07 07:51:51;;;;;;;9.38;5.45;;;;;;;-148.14;100.00;65945.72;5043714;28;20032;-90
2022/08/07 07:54:18;;;;;;;6.70;5.20;;;;;;;-148.14;100.00;65945.72;5037435;28;20040;-89
2022/08/07 07:56:46;;;;;;;10.23;4.75;;;;;;;-148.14;100.00;65945.72;5047335;28;20536;-90
2022/08/07 07:59:14;;;;;;;12.93;5.25;;;;;;;-148.14;100.00;65945.72;5030919;28;20088;-89
2022/08/07 08:01:45;;;;;;;9.57;4.95;;;;;;;-148.14;100.00;65945.72;5026152;28;20091;-90
2022/08/07 08:04:12;;;;;;;10.43;4.72;;;;;;;-148.14;100.00;65945.72;5022856;28;20517;-89
2022/08/07 08:06:44;;;;;;;8.63;4.82;;;;;;;-148.14;100.00;65945.72;5064679;28;20073;-90
2022/08/07 08:09:11;;;;;;;10.65;5.50;;;;;;;-148.14;100.00;65945.72;5032335;28;20029;-90
2022/08/07 08:11:38;;;;;;;11.68;6.10;;;;;;;-148.14;100.00;65945.72;5021347;28;20402;-90
2022/08/07 08:14:04;;;;;;;5.95;5.25;;;;;;;-148.14;100.00;65945.72;5046577;28;20053;-92
2022/08/07 08:16:38;;;;;;;8.30;5.30;;;;;;;-148.14;100.00;65945.72;5039459;28;20033;-89
2022/08/07 08:19:07;;;;;;;9.88;5.30;;;;;;;-148.14;100.00;65945.72;5045021;28;20065;-90
2022/08/07 08:27:26;;;;;;;7.25;4.68;;;;;;;-148.14;100.00;65945.72;5059416;28;19920;-89
2022/08/07 08:29:56;;;;;;;11.45;5.72;;;;;;;-148.14;100.00;65945.72;5061505;28;20029;-89
2022/08/07 08:32:30;;;;;;;10.43;5.53;;;;;;;-148.14;100.00;65945.72;5021924;28;20043;-89
2022/08/07 08:34:58;;;;;;;9.55;5.40;;;;;;;-148.14;100.00;65945.72;5035712;28;20033;-90
2022/08/07 08:37:27;;;;;;;10.68;6.05;;;;;;;-148.14;100.00;65945.72;5048071;28;20037;-91
2022/08/07 08:39:54;;;;;;;6.13;5.28;;;;;;;-148.14;100.00;65945.72;5058452;28;20039;-90
2022/08/07 08:42:30;;;;;;;9.20;5.55;;;;;;;-148.14;100.00;65945.72;5030803;28;20116;-90
2022/08/07 08:44:59;;;;;;;10.95;5.18;;;;;;;-148.14;100.00;65945.72;5021281;28;20104;-89
2022/08/07 08:47:41;;;;;;;12.63;5.45;;;;;;;-148.14;100.00;65945.72;5041354;28;20025;-91
2022/08/07 08:50:21;;;;;;;11.38;5.22;;;;;;;-148.14;100.00;65945.72;5044542;28;20605;-90
2022/08/07 08:53:02;;;;;;;7.32;5.20;;;;;;;-148.14;100.00;65945.72;5026718;28;20025;-92
2022/08/07 08:55:37;;;;;;;9.40;4.95;;;;;;;-148.14;100.00;65945.72;5065584;28;20039;-90
2022/08/07 08:58:26;;;;;;;9.68;4.90;;;;;;;-148.14;100.00;65945.72;5061031;28;20037;-90
2022/08/07 09:00:59;;;;;;;7.35;4.80;;;;;;;-148.14;100.00;65945.72;5038426;28;20096;-90
2022/08/07 09:03:58;;;;;;;9.68;5.20;;;;;;;-148.14;100.00;65945.72;5023905;28;20380;-90
2022/08/07 09:07:04;;;;;;;10.73;5.00;;;;;;;-148.14;100.00;65945.72;5041601;28;20051;-88
2022/08/07 09:09:58;;;;;;;6.93;4.55;;;;;;;-148.14;100.00;65945.72;5044940;28;20087;-90
2022/08/07 09:12:49;;;;;;;11.15;4.63;;;;;;;-148.14;100.00;65945.72;5035914;28;20032;-91
2022/08/07 09:15:26;;;;;;;8.52;3.83;;;;;;;-148.14;100.00;65945.72;5020385;28;20439;-92
2022/08/07 09:18:10;;;;;;;7.88;3.97;;;;;;;-148.14;100.00;65945.72;5046048;28;20033;-91
2022/08/07 09:21:10;;;;;;;8.13;4.30;;;;;;;-148.14;100.00;65945.72;5038663;28;20053;-89
2022/08/07 09:23:58;;;;;;;8.77;4.45;;;;;;;-148.14;100.00;65945.72;5063991;28;20067;-90
2022/08/07 09:26:43;;;;;;;6.57;4.32;;;;;;;-148.14;100.00;65945.72;5062361;28;20033;-90
2022/08/07 09:29:21;;;;;;;5.53;3.53;;;;;;;-148.14;100.00;65945.72;5047052;28;20052;-91
2022/08/07 09:32:05;;;;;;;8.23;3.85;;;;;;;-148.14;100.00;65945.72;5064785;28;20061;-92
2022/08/07 09:35:25;;;;;;;6.32;4.10;;;;;;;-148.14;100.00;65945.72;5040568;28;20510;-91
2022/08/07 09:38:10;;;;;;;7.32;4.03;;;;;;;-148.14;100.00;65945.72;4986509;28;20041;-89
2022/08/07 09:41:13;;;;;;;5.97;3.80;;;;;;;-148.14;100.00;65945.72;5003707;28;20038;-90
2022/08/07 09:44:20;;;;;;;6.13;3.45;;;;;;;-148.14;100.00;65945.72;5038529;28;20056;-91
2022/08/07 09:47:08;;;;;;;6.15;3.67;;;;;;;-148.14;100.00;65945.72;5022777;28;20108;-91
2022/08/07 09:50:28;;;;;;;8.68;4.00;;;;;;;-148.14;100.00;65945.72;5018929;28;20043;-89
2022/08/07 09:53:01;;;;;;;8.05;3.83;;;;;;;-148.14;100.00;65945.72;4987350;28;20539;-89
2022/08/07 09:55:42;;;;;;;7.47;3.80;;;;;;;-148.14;100.00;65945.72;5055593;28;20036;-90
2022/08/07 09:58:41;;;;;;;8.32;3.90;;;;;;;-148.14;100.00;65945.72;5029114;28;20111;-90
2022/08/07 10:01:43;;;;;;;8.07;4.47;;;;;;;-148.14;100.00;65945.72;5029862;28;20060;-90
2022/08/07 10:04:47;;;;;;;7.25;3.97;;;;;;;-148.14;100.00;65945.72;5039029;28;20049;-90
2022/08/07 10:07:43;;;;;;;5.55;3.47;;;;;;;-148.14;100.00;65945.72;5035746;28;20025;-89
2022/08/07 10:10:18;;;;;;;3.85;3.15;;;;;;;-148.14;100.00;65945.72;5050111;28;20025;-90
2022/08/07 10:13:02;;;;;;;7.47;3.75;;;;;;;-148.14;100.00;65945.72;5049835;28;20040;-91
2022/08/07 10:15:57;;;;;;;;;;;;;;;-148.14;100.00;65945.72;5051742;28;20029;-90
2022/08/07 10:18:44;;;;;;;10.40;3.97;;;;;;;-148.14;100.00;65945.72;5047932;28;19921;-89
2022/08/07 10:21:44;;;;;;;8.63;4.32;;;;;;;-148.14;100.00;65945.72;5044651;28;20029;-90
2022/08/07 10:24:27;;;;;;;7.65;3.97;;;;;;;-148.14;100.00;65945.72;5037921;28;20028;-90
2022/08/07 10:27:11;;;;;;;5.45;3.30;;;;;;;-148.14;100.00;65945.72;5054690;28;20033;-90
2022/08/07 10:29:57;;;;;;;7.57;3.35;;;;;;;-148.14;100.00;65945.72;5053466;28;20037;-90
2022/08/07 10:32:32;;;;;;;6.38;3.40;;;;;;;-148.14;100.00;65945.72;5051767;28;20069;-91
2022/08/07 10:35:13;;;;;;;7.80;3.55;;;;;;;-148.14;100.00;65945.72;5073705;28;20025;-89
2022/08/07 10:38:12;;;;;;;7.65;3.72;;;;;;;-148.14;100.00;65945.72;5067164;28;20049;-90
2022/08/07 10:41:14;;;;;;;7.65;4.20;;;;;;;-148.14;100.00;65945.72;5030480;28;20042;-88
2022/08/07 10:43:55;;;;;;;6.55;3.90;;;;;;;-148.14;100.00;65945.72;5028541;28;20076;-90
2022/08/07 10:46:34;;;;;;;9.57;4.20;;;;;;;-148.14;100.00;65945.72;5038136;28;20047;-90
2022/08/07 10:49:14;;;;;;;9.82;3.83;;;;;;;-148.14;100.00;65945.72;5068705;28;20029;-90
2022/08/07 10:51:54;;;;;;;4.90;3.97;;;;;;;-148.14;100.00;65945.72;5062800;28;20033;-90
2022/08/07 10:54:26;;;;;;;7.13;3.70;;;;;;;-148.14;100.00;65945.72;5041312;28;20034;-91
2022/08/07 10:57:17;;;;;;;11.93;4.80;;;;;;;-148.14;100.00;65945.72;5044561;28;20092;-91
2022/08/07 10:59:52;;;;;;;7.28;4.38;;;;;;;-148.14;100.00;65945.72;5031152;28;20037;-91
2022/08/07 11:02:43;;;;;;;6.18;3.97;;;;;;;-148.14;100.00;65945.72;5063704;28;20382;-92
2022/08/07 11:05:36;;;;;;;10.02;4.00;;;;;;;-148.14;100.00;65945.72;5039121;28;20033;-90
2022/08/07 11:08:19;;;;;;;6.43;3.90;;;;;;;-148.14;100.00;65945.72;5029841;28;20033;-90
2022/08/07 11:10:55;;;;;;;5.90;3.95;;;;;;;-148.14;100.00;65945.72;5066708;28;20032;-90
2022/08/07 11:13:33;;;;;;;7.40;4.28;;;;;;;-148.14;100.00;65945.72;5046204;28;20036;-90
2022/08/07 11:16:07;;;;;;;4.70;3.85;;;;;;;-148.14;100.00;65945.72;5031298;28;20021;-91
2022/08/07 11:18:47;;;;;;;8.32;4.05;;;;;;;-148.14;100.00;65945.72;5069515;28;20464;-89
2022/08/07 11:21:33;;;;;;;7.53;3.53;;;;;;;-148.14;100.00;65945.72;5034765;28;20059;-91
2022/08/07 11:24:19;;;;;;;7.78;3.65;;;;;;;-148.14;100.00;65945.72;5038185;28;20036;-91
2022/08/07 11:26:52;;;;;;;5.57;3.33;;;;;;;-148.14;100.00;65945.72;5026315;28;20040;-91
2022/08/07 11:29:37;;;;;;;8.75;4.00;;;;;;;-148.14;100.00;65945.72;5044281;28;20036;-91
2022/08/07 11:32:27;;;;;;;4.32;3.78;;;;;;;-148.14;100.00;65945.72;5038192;28;20129;-90
2022/08/07 11:35:06;;;;;;;5.15;3.50;;;;;;;-148.14;100.00;65945.72;5033918;28;20510;-92
2022/08/07 11:37:40;;;;;;;8.07;3.90;;;;;;;-148.14;100.00;65945.72;5043629;28;20116;-92
2022/08/07 11:40:35;;;;;;;8.57;3.95;;;;;;;-148.14;100.00;65945.72;5066530;28;20052;-91